Flight Track Log - Related Links

Times and Time Zones

All times are in EDT time to prevent confusion due to time zone crossing. See the EGF3776 flight status page for this flight to view local times or setup timezone preferences in your user account.

Time Position Orientation Groundspeed Altitude Reporting Facility
EDT Latitude Longitude Course Direction KTS MPH feet Rate Location/Type
Fri 11:29:52 PM 42.0000 -87.9167 77° East 176 203 1,700  Level Chicago TRACON
Fri 11:30:46 PM 42.0500 -87.9333 346° North 245 282 3,900 2,133 Climbing Chicago TRACON
Fri 11:32:00 PM 42.0360 -87.4651 79° East  Level FlightAware Approximate
Fri 11:32:38 PM 42.0731 -87.7631 80° East 269 310 7,600  Level Chicago Center
Fri 11:33:00 PM 42.0576 -87.3176 78° East  Level FlightAware Approximate
Fri 11:33:39 PM 42.0767 -87.6536 87° East 288 331 10,500  Level Chicago Center
Fri 11:34:00 PM 42.0802 -87.1704 78° East  Level FlightAware Approximate
Fri 11:34:40 PM 42.0839 -87.5433 85° East 294 338 12,800  Level Chicago Center
Fri 11:35:00 PM 42.1017 -87.0231 77° East  Level FlightAware Approximate
Fri 11:35:41 PM 42.0911 -87.4211 85° East 319 367 14,000  Level Chicago Center
Fri 11:36:41 PM 42.1000 -87.2772 85° East 375 432 15,300 1,686 Climbing Chicago Center
Fri 11:37:42 PM 42.1092 -87.1036 86° East 387 445 17,400 1,721 Climbing Chicago Center
Fri 11:38:43 PM 42.1153 -86.9586 87° East 389 448 18,800 1,426 Climbing Chicago Center
Fri 11:39:44 PM 42.1206 -86.8067 87° East 402 463 20,300 1,388 Climbing Chicago Center
Fri 11:40:44 PM 42.1244 -86.6686 88° East 416 479 21,600 1,339 Climbing Chicago Center
Fri 11:41:45 PM 42.1300 -86.5125 87° East 426 490 23,000 1,180 Climbing Chicago Center
Fri 11:42:46 PM 42.1356 -86.3486 87° East 434 499 24,000 984 Climbing Chicago Center
Fri 11:43:47 PM 42.0458 -86.1947 128° Southeast 453 521 25,000 496 Climbing Chicago Center
Fri 11:44:47 PM 41.9556 -86.0931 140° Southeast 434 499 25,000  Level Chicago Center
Fri 11:45:48 PM 41.8706 -85.9989 140° Southeast 411 473 25,000  Level Chicago Center
Fri 11:46:49 PM 41.7875 -85.9025 139° Southeast 399 459 25,000  Level Chicago Center
Fri 11:47:49 PM 41.7558 -85.7625 107° East 402 463 25,000  Level Chicago Center
Fri 11:48:50 PM 41.7453 -85.6128 95° East 402 463 25,000  Level Chicago Center
Fri 11:49:51 PM 41.7350 -85.4525 95° East 417 480 25,000  Level Chicago Center
Fri 11:50:51 PM 41.7197 -85.2772 97° East 455 524 25,000  Level Chicago Center
Fri 11:51:52 PM 41.7058 -85.0961 96° East 482 555 25,000  Level Chicago Center
Fri 11:52:44 PM 41.6972 -84.9581 95° East 485 558 25,000  Level Cleveland Center
Fri 11:53:44 PM 41.6808 -84.7792 97° East 499 574 25,000  Level Cleveland Center
Fri 11:54:44 PM 41.6683 -84.6086 96° East 485 558 25,000  Level Cleveland Center
Fri 11:55:44 PM 41.6553 -84.4408 96° East 473 544 25,000  Level Cleveland Center
Fri 11:56:44 PM 41.6364 -84.2564 98° East 460 529 25,000  Level Cleveland Center
Fri 11:57:44 PM 41.6208 -84.0861 97° East 460 529 25,000  Level Cleveland Center
Fri 11:58:44 PM 41.6047 -83.9214 97° East 455 524 25,000  Level Cleveland Center
Fri 11:59:44 PM 41.5928 -83.7594 96° East 448 516 25,000 -350 Level Cleveland Center
Sat 12:00:44 AM 41.5764 -83.5950 98° East 448 516 24,300 -1,100 Descending Cleveland Center
Sat 12:01:44 AM 41.5619 -83.4306 97° East 448 516 22,800 -1,700 Descending Cleveland Center
Sat 12:02:44 AM 41.5489 -83.2772 96° East 442 509 20,900 -1,950 Descending Cleveland Center
Sat 12:03:44 AM 41.5356 -83.1242 97° East 424 488 18,900 -2,080 Descending Cleveland Center
Sat 12:03:59 AM 41.5322 -83.0881 97° East 414 476 18,300 -1,800 Descending Cleveland Center
Sat 12:04:44 AM 41.5203 -82.9739 98° East 418 481 17,100 -1,890 Descending Cleveland Center
Sat 12:05:12 AM 41.5153 -82.9069 96° East 388 447 16,000 -2,000 Descending Cleveland Center
Sat 12:05:44 AM 41.5064 -82.8319 99° East 400 460 15,100 -2,000 Descending Cleveland Center
Sat 12:06:12 AM 41.4992 -82.7706 99° East 376 433 14,000 -2,100 Descending Cleveland Center
Sat 12:06:44 AM 41.4922 -82.6956 97° East 379 436 13,000 -1,967 Descending Cleveland Center
Sat 12:07:13 AM 41.4872 -82.6317 96° East 373 429 12,000 -2,000 Descending Cleveland Center
Sat 12:07:44 AM 41.4739 -82.5592 104° East 379 436 11,000 -1,869 Descending Cleveland Center
Sat 12:08:14 AM 41.4581 -82.5006 110° East 360 414 10,100 -900 Descending Cleveland Center
Sat 12:08:44 AM 41.4444 -82.4419 107° East 353 406 10,100 -900 Level Cleveland Center
Sat 12:09:14 AM 41.4308 -82.3917 110° East 282 325 9,200 -2,100 Descending Cleveland Center
Sat 12:09:44 AM 41.4192 -82.3358 106° East 307 353 8,000 -2,361 Descending Cleveland Center
Sat 12:10:15 AM 41.4072 -82.2886 109° East 290 334 6,800 -1,900 Descending Cleveland Center
Sat 12:10:44 AM 41.3956 -82.2383 107° East 280 322 6,100 -1,700 Descending Cleveland Center
Sat 12:11:15 AM 41.3836 -82.1967 111° Southeast 250 288 5,100 -1,900 Descending Cleveland Center
Sat 12:11:44 AM 41.3758 -82.1550 104° East 252 290 4,200 -984 Descending Cleveland Center
Sat 12:12:16 AM 41.3661 -82.1158 108° East 221 254 4,100 -300 Descending Cleveland Center
Sat 12:12:44 AM 41.3581 -82.0853 109° East 233 268 3,900 -984 Descending Cleveland Center
Sat 12:13:17 AM 41.3481 -82.0464 109° East 182 209 3,100 -1,000 Descending Cleveland Center
Sat 12:13:44 AM 41.3422 -82.0242 109° East 194 223 2,900 -600 Descending Cleveland Center
Sat 12:14:17 AM 41.3406 -81.9853 93° East 152 175 2,500 -574 Descending Cleveland Center
Sat 12:15:18 AM 41.3600 -81.9386 61° Northeast 141 162 2,000 -545 Descending Cleveland Center
Sat 12:16:18 AM 41.3811 -81.9031 52° Northeast 118 136 1,400 -600 Descending Cleveland Center
Sat 12:18:00 AM 41.4000 -81.8500 90° East  Level FlightAware Approximate

Login

Don't have an account? Register now (free) for customized features, flight alerts, and more!